Terminal Aerodrome Forecast
Issued by NWS Knoxville/Tri Cities, TN

Home | Current Version | Previous Version | Text Only | Print | Product List | Glossary On
Versions: 1 2 3 4 5 6 7 8 9 10 11 12 13 14 15 16 17 18 19 20 21 22 23 24 25 26
000
FTUS44 KMRX 281225 AAA
TAFCHA
TAF AMD
KCHA 281225Z 2812/2912 19006KT P6SM BKN022 BKN045
     FM281400 20008KT P6SM SCT022 BKN045
     FM282000 22010KT P6SM VCTS BKN035CB
     FM290000 24010KT 4SM -SHRA BR OVC035
     FM290400 21005KT P6SM OVC025
     FM291000 20003KT P6SM OVC015=

USA.gov is the U.S. government's official web portal to all federal, state and local government web resources and services.